createdAt,value
2024-01-12T04:58:42.299Z,18.25
2024-01-12T05:01:45.191Z,16.77
2024-01-12T05:04:47.488Z,17.90
2024-01-12T05:07:52.625Z,17.65
2024-01-12T05:10:55.735Z,16.87
2024-01-12T05:13:58.237Z,19.08
2024-01-12T05:17:00.437Z,18.87
2024-01-12T05:20:10.151Z,17.35
2024-01-12T05:23:12.388Z,25.00
2024-01-12T05:26:15.603Z,19.23
2024-01-12T05:29:17.890Z,17.08
2024-01-12T05:32:20.430Z,16.52
2024-01-12T05:35:22.885Z,15.80
2024-01-12T05:38:25.380Z,17.27
2024-01-12T05:41:27.747Z,16.17
2024-01-12T05:44:30.865Z,16.48
2024-01-12T05:47:33.942Z,16.95
2024-01-12T05:50:36.608Z,17.52
2024-01-12T05:53:38.940Z,15.55
2024-01-12T05:56:41.529Z,16.67
2024-01-12T05:59:43.756Z,17.40
2024-01-12T06:02:46.265Z,16.58
2024-01-12T06:05:51.518Z,21.37
2024-01-12T06:08:53.914Z,18.35
2024-01-12T06:11:58.452Z,16.15
2024-01-12T06:15:01.205Z,15.30
2024-01-12T06:18:04.271Z,15.07
2024-01-12T06:21:06.655Z,16.15
2024-01-12T06:24:12.911Z,15.82
2024-01-12T06:27:15.281Z,14.27
2024-01-12T06:30:18.040Z,15.13
2024-01-12T06:33:20.415Z,14.90
2024-01-12T06:36:23.154Z,14.73
2024-01-12T06:39:25.476Z,12.90
2024-01-12T06:42:29.257Z,12.45
2024-01-12T06:45:31.500Z,13.25
2024-01-12T06:48:35.514Z,12.95
2024-01-12T06:51:37.797Z,12.05
2024-01-12T06:54:44.571Z,13.00
2024-01-12T06:57:48.123Z,12.57
2024-01-12T07:00:50.784Z,11.55
2024-01-12T07:03:53.288Z,12.05
2024-01-12T07:06:55.875Z,12.40
2024-01-12T07:09:58.132Z,12.93
2024-01-12T07:13:00.602Z,12.23
2024-01-12T07:16:03.061Z,11.80
2024-01-12T07:19:06.255Z,11.43
2024-01-12T07:22:08.555Z,14.82
2024-01-12T07:25:11.111Z,12.07
2024-01-12T07:28:13.298Z,13.55
2024-01-12T07:31:15.824Z,10.88
2024-01-12T07:34:18.841Z,10.68
2024-01-12T07:37:21.449Z,11.35
2024-01-12T07:40:23.722Z,10.55
2024-01-12T07:43:28.225Z,11.73
2024-01-12T07:46:30.998Z,11.20
2024-01-12T07:49:34.427Z,11.50
2024-01-12T07:52:36.590Z,12.63
2024-01-12T07:55:39.496Z,11.38
2024-01-12T07:58:41.625Z,12.43
2024-01-12T08:01:45.452Z,11.20
2024-01-12T08:04:47.933Z,25.23
2024-01-12T08:07:50.890Z,10.63
2024-01-12T08:10:53.352Z,10.25
2024-01-12T08:13:55.925Z,9.85
2024-01-12T08:16:58.358Z,10.20
2024-01-12T08:20:00.548Z,9.30
2024-01-12T08:23:03.147Z,9.70
2024-01-12T08:26:05.924Z,9.77
2024-01-12T08:29:08.781Z,9.77
2024-01-12T08:32:10.926Z,10.32
2024-01-12T08:35:13.668Z,14.63
2024-01-12T08:38:15.860Z,10.73
2024-01-12T08:41:18.517Z,11.57
2024-01-12T08:44:20.723Z,10.10
2024-01-12T08:47:23.373Z,9.90
2024-01-12T08:50:26.212Z,8.95
2024-01-12T08:53:29.423Z,10.57
2024-01-12T08:56:31.817Z,9.73
2024-01-12T08:59:34.434Z,9.55
2024-01-12T09:02:36.735Z,8.38
2024-01-12T09:05:39.418Z,10.13
2024-01-12T09:08:42.147Z,9.35
2024-01-12T09:11:46.027Z,9.07
2024-01-12T09:14:48.471Z,9.40
2024-01-12T09:17:51.120Z,9.02
2024-01-12T09:20:53.546Z,9.07
2024-01-12T09:23:56.129Z,9.88
2024-01-12T09:26:58.391Z,9.52
2024-01-12T09:30:01.040Z,9.38
2024-01-12T09:33:03.696Z,9.68
2024-01-12T09:36:06.818Z,9.93
2024-01-12T09:39:15.595Z,30.02
2024-01-12T09:42:22.569Z,9.77
2024-01-12T09:45:26.602Z,9.60
2024-01-12T09:48:30.892Z,9.10
2024-01-12T09:51:33.269Z,10.07
2024-01-12T09:54:36.246Z,9.25
2024-01-12T09:57:40.444Z,9.88
2024-01-12T10:00:44.385Z,9.23
2024-01-12T10:03:48.572Z,16.92
2024-01-12T10:06:50.970Z,9.48
2024-01-12T10:09:53.979Z,10.43
2024-01-12T10:12:56.361Z,9.25
2024-01-12T10:15:58.864Z,9.95
2024-01-12T10:19:01.440Z,10.60
2024-01-12T10:22:04.890Z,10.73
2024-01-12T10:25:08.293Z,10.48
2024-01-12T10:28:18.100Z,9.85
2024-01-12T10:31:21.009Z,9.57
2024-01-12T10:34:25.710Z,10.15
2024-01-12T10:37:28.066Z,9.25
2024-01-12T10:40:30.727Z,9.98
2024-01-12T10:43:37.591Z,10.10
2024-01-12T10:46:46.984Z,10.02
2024-01-12T10:50:00.472Z,9.50
2024-01-12T10:53:15.333Z,9.75
2024-01-12T10:56:18.715Z,10.05
2024-01-12T10:59:23.087Z,9.55
2024-01-12T11:02:26.052Z,9.25
2024-01-12T11:05:29.708Z,8.63
2024-01-12T11:08:32.505Z,9.13
2024-01-12T11:11:44.738Z,9.45
2024-01-12T11:14:47.103Z,9.93
2024-01-12T11:17:49.781Z,8.85
2024-01-12T11:21:03.359Z,9.20
2024-01-12T11:24:06.820Z,9.23
2024-01-12T11:27:11.986Z,8.88
2024-01-12T11:30:18.322Z,9.32
2024-01-12T11:33:20.761Z,10.20
2024-01-12T11:36:28.222Z,9.15
2024-01-12T11:39:35.141Z,9.63
2024-01-12T11:42:39.236Z,10.00
2024-01-12T11:45:42.928Z,9.63
2024-01-12T11:48:46.190Z,9.88
2024-01-12T11:51:48.789Z,9.00
2024-01-12T11:54:51.734Z,9.82
2024-01-12T11:57:55.490Z,9.63
2024-01-12T12:00:57.925Z,9.25
2024-01-12T12:04:00.448Z,9.95
2024-01-12T12:07:02.767Z,11.27
2024-01-12T12:10:06.395Z,10.02
2024-01-12T12:13:12.083Z,10.30
2024-01-12T12:16:15.965Z,10.68
2024-01-12T12:19:18.432Z,10.18
2024-01-12T12:22:21.383Z,10.00
2024-01-12T12:25:23.701Z,9.75
2024-01-12T12:28:26.193Z,11.23
2024-01-12T12:31:29.085Z,10.25
2024-01-12T12:34:35.131Z,10.02
2024-01-12T12:37:37.804Z,11.43
2024-01-12T12:40:40.374Z,10.45
2024-01-12T12:43:44.914Z,10.70
2024-01-12T12:46:47.409Z,10.15
2024-01-12T12:49:49.759Z,10.50
2024-01-12T12:52:52.692Z,9.80
2024-01-12T12:55:55.429Z,9.32
2024-01-12T12:58:58.083Z,10.60
2024-01-12T13:02:04.147Z,11.32
2024-01-12T13:05:07.503Z,11.10
2024-01-12T13:08:09.781Z,10.32
2024-01-12T13:11:12.390Z,9.85
2024-01-12T13:14:14.920Z,10.23
2024-01-12T13:17:17.605Z,9.10
2024-01-12T13:20:22.307Z,10.38
2024-01-12T13:23:25.035Z,10.63
2024-01-12T13:26:28.044Z,9.23
2024-01-12T13:29:30.493Z,9.70
2024-01-12T13:32:32.837Z,9.23
2024-01-12T13:35:35.643Z,8.50
2024-01-12T13:38:37.881Z,9.95
2024-01-12T13:41:40.958Z,9.85
2024-01-12T13:44:43.677Z,9.00
2024-01-12T13:47:46.340Z,9.32
2024-01-12T13:50:48.706Z,9.98
2024-01-12T13:53:53.868Z,9.00
2024-01-12T13:56:56.047Z,9.05
2024-01-12T13:59:58.744Z,8.77
2024-01-12T14:03:01.126Z,8.95
2024-01-12T14:06:04.106Z,9.10
2024-01-12T14:09:07.956Z,8.52
2024-01-12T14:12:11.070Z,8.52
2024-01-12T14:15:13.416Z,8.10
2024-01-12T14:18:16.135Z,7.72
2024-01-12T14:21:18.424Z,7.85
2024-01-12T14:24:20.917Z,7.75
2024-01-12T14:27:23.182Z,7.78
2024-01-12T14:30:25.753Z,8.02
2024-01-12T14:33:31.032Z,8.05
2024-01-12T14:36:33.741Z,7.57
2024-01-12T14:39:35.977Z,7.95
2024-01-12T14:42:39.226Z,8.70
2024-01-12T14:45:41.379Z,7.82
2024-01-12T14:48:44.120Z,7.40
2024-01-12T14:51:47.302Z,7.95
2024-01-12T14:54:50.455Z,8.50
2024-01-12T14:57:52.679Z,8.23
2024-01-12T15:00:55.184Z,8.00
2024-01-12T15:04:06.637Z,7.35
2024-01-12T15:07:17.819Z,7.85
2024-01-12T15:10:20.255Z,7.47
2024-01-12T15:13:22.825Z,8.40
2024-01-12T15:16:26.111Z,7.32
2024-01-12T15:19:28.852Z,7.68
2024-01-12T15:22:31.241Z,7.75
2024-01-12T15:25:34.246Z,7.03
2024-01-12T15:28:36.681Z,9.80
2024-01-12T15:31:39.435Z,7.57
2024-01-12T15:34:41.888Z,8.13
2024-01-12T15:37:44.420Z,6.97
2024-01-12T15:40:46.758Z,8.00
2024-01-12T15:43:49.193Z,8.27
2024-01-12T15:46:51.320Z,7.45
2024-01-12T15:49:54.029Z,7.82
2024-01-12T15:52:58.179Z,7.85
2024-01-12T15:56:00.704Z,8.23
2024-01-12T15:59:02.889Z,8.20
2024-01-12T16:02:05.372Z,8.73
2024-01-12T16:05:08.331Z,8.38
2024-01-12T16:08:10.498Z,8.57
2024-01-12T16:11:20.061Z,8.70
2024-01-12T16:14:22.432Z,7.50
2024-01-12T16:17:25.175Z,7.50
2024-01-12T16:20:27.502Z,7.87
2024-01-12T16:23:30.058Z,7.87
2024-01-12T16:26:38.960Z,7.53
2024-01-12T16:29:41.570Z,7.15
2024-01-12T16:32:45.463Z,7.05
2024-01-12T16:35:49.189Z,7.68
2024-01-12T16:38:51.392Z,7.40
2024-01-12T16:41:57.110Z,7.40
2024-01-12T16:45:00.916Z,7.18
2024-01-12T16:48:04.692Z,6.70
